sensor_id;sensor_type;location;lat;lon;timestamp;pressure;altitude;pressure_sealevel;temperature;humidity
34073;BME280;20346;52.702;16.886;2023-08-30T00:00:50;99804.04;;;16.44;79.07
34073;BME280;20346;52.702;16.886;2023-08-30T00:04:17;99795.00;;;16.44;79.07
34073;BME280;20346;52.702;16.886;2023-08-30T00:07:58;99805.29;;;16.43;79.07
34073;BME280;20346;52.702;16.886;2023-08-30T00:11:27;99809.27;;;16.44;79.07
34073;BME280;20346;52.702;16.886;2023-08-30T00:14:54;99814.02;;;16.42;79.18
34073;BME280;20346;52.702;16.886;2023-08-30T00:18:21;99816.42;;;16.43;79.10
34073;BME280;20346;52.702;16.886;2023-08-30T00:21:49;99815.42;;;16.43;79.16
34073;BME280;20346;52.702;16.886;2023-08-30T00:25:15;99816.67;;;16.42;79.14
34073;BME280;20346;52.702;16.886;2023-08-30T00:28:44;99810.60;;;16.42;79.13
34073;BME280;20346;52.702;16.886;2023-08-30T00:32:12;99803.23;;;16.39;79.19
34073;BME280;20346;52.702;16.886;2023-08-30T00:35:39;99808.54;;;16.38;79.08
34073;BME280;20346;52.702;16.886;2023-08-30T00:39:05;99811.63;;;16.35;79.08
34073;BME280;20346;52.702;16.886;2023-08-30T00:42:31;99815.06;;;16.33;79.22
34073;BME280;20346;52.702;16.886;2023-08-30T00:45:58;99822.42;;;16.32;79.04
34073;BME280;20346;52.702;16.886;2023-08-30T00:49:24;99825.09;;;16.31;79.08
34073;BME280;20346;52.702;16.886;2023-08-30T00:52:54;99828.43;;;16.30;79.20
34073;BME280;20346;52.702;16.886;2023-08-30T00:56:17;99826.96;;;16.28;79.31
34073;BME280;20346;52.702;16.886;2023-08-30T00:59:44;99829.45;;;16.27;79.31
34073;BME280;20346;52.702;16.886;2023-08-30T01:03:12;99831.14;;;16.25;79.19
34073;BME280;20346;52.702;16.886;2023-08-30T01:06:41;99834.30;;;16.24;79.31
34073;BME280;20346;52.702;16.886;2023-08-30T01:10:09;99831.56;;;16.23;79.24
34073;BME280;20346;52.702;16.886;2023-08-30T01:13:39;99822.74;;;16.22;79.31
34073;BME280;20346;52.702;16.886;2023-08-30T01:17:02;99824.90;;;16.21;79.28
34073;BME280;20346;52.702;16.886;2023-08-30T01:20:29;99817.95;;;16.20;79.21
34073;BME280;20346;52.702;16.886;2023-08-30T01:23:58;99812.42;;;16.20;79.43
34073;BME280;20346;52.702;16.886;2023-08-30T01:27:24;99816.98;;;16.19;79.32
34073;BME280;20346;52.702;16.886;2023-08-30T01:30:51;99817.50;;;16.19;79.36
34073;BME280;20346;52.702;16.886;2023-08-30T01:34:17;99808.83;;;16.19;79.38
34073;BME280;20346;52.702;16.886;2023-08-30T01:37:45;99801.73;;;16.18;79.33
34073;BME280;20346;52.702;16.886;2023-08-30T01:41:13;99800.73;;;16.17;79.37
34073;BME280;20346;52.702;16.886;2023-08-30T01:44:41;99800.39;;;16.17;79.45
34073;BME280;20346;52.702;16.886;2023-08-30T01:48:09;99802.42;;;16.18;79.45
34073;BME280;20346;52.702;16.886;2023-08-30T01:51:34;99796.14;;;16.19;79.33
34073;BME280;20346;52.702;16.886;2023-08-30T01:55:01;99794.92;;;16.19;79.42
34073;BME280;20346;52.702;16.886;2023-08-30T01:58:28;99790.80;;;16.18;79.37
34073;BME280;20346;52.702;16.886;2023-08-30T02:01:55;99790.73;;;16.16;79.45
34073;BME280;20346;52.702;16.886;2023-08-30T02:05:21;99784.02;;;16.14;79.41
34073;BME280;20346;52.702;16.886;2023-08-30T02:12:16;99778.75;;;16.12;79.50
34073;BME280;20346;52.702;16.886;2023-08-30T02:15:42;99775.52;;;16.11;79.58
34073;BME280;20346;52.702;16.886;2023-08-30T02:19:10;99779.64;;;16.12;79.46
34073;BME280;20346;52.702;16.886;2023-08-30T02:22:37;99774.71;;;16.10;79.45
34073;BME280;20346;52.702;16.886;2023-08-30T02:26:03;99762.88;;;16.10;79.50
34073;BME280;20346;52.702;16.886;2023-08-30T02:29:30;99761.92;;;16.09;79.38
34073;BME280;20346;52.702;16.886;2023-08-30T02:32:58;99764.64;;;16.07;79.53
34073;BME280;20346;52.702;16.886;2023-08-30T02:36:24;99773.38;;;16.06;79.50
34073;BME280;20346;52.702;16.886;2023-08-30T02:39:56;99776.73;;;16.05;79.54
34073;BME280;20346;52.702;16.886;2023-08-30T02:43:22;99783.58;;;16.04;79.48
34073;BME280;20346;52.702;16.886;2023-08-30T02:47:01;99789.48;;;16.00;79.53
34073;BME280;20346;52.702;16.886;2023-08-30T02:50:27;99796.08;;;16.00;79.59
34073;BME280;20346;52.702;16.886;2023-08-30T02:53:54;99804.30;;;16.00;79.53
34073;BME280;20346;52.702;16.886;2023-08-30T02:57:20;99802.11;;;15.98;79.57
34073;BME280;20346;52.702;16.886;2023-08-30T03:00:47;99803.23;;;15.97;79.60
34073;BME280;20346;52.702;16.886;2023-08-30T03:04:15;99794.88;;;15.97;79.59
34073;BME280;20346;52.702;16.886;2023-08-30T03:07:41;99795.52;;;15.98;79.61
34073;BME280;20346;52.702;16.886;2023-08-30T03:11:09;99799.54;;;15.98;79.63
34073;BME280;20346;52.702;16.886;2023-08-30T03:14:34;99794.48;;;15.98;79.68
34073;BME280;20346;52.702;16.886;2023-08-30T03:18:01;99795.55;;;15.97;79.65
34073;BME280;20346;52.702;16.886;2023-08-30T03:21:29;99792.85;;;15.96;79.69
34073;BME280;20346;52.702;16.886;2023-08-30T03:24:55;99786.07;;;15.96;79.76
34073;BME280;20346;52.702;16.886;2023-08-30T03:28:22;99780.88;;;15.96;79.81
34073;BME280;20346;52.702;16.886;2023-08-30T03:31:48;99772.71;;;15.95;79.78
34073;BME280;20346;52.702;16.886;2023-08-30T03:35:15;99776.86;;;15.96;79.71
34073;BME280;20346;52.702;16.886;2023-08-30T03:38:46;99776.70;;;15.96;79.73
34073;BME280;20346;52.702;16.886;2023-08-30T03:42:14;99777.89;;;15.96;79.76
34073;BME280;20346;52.702;16.886;2023-08-30T03:45:41;99780.48;;;15.97;79.71
34073;BME280;20346;52.702;16.886;2023-08-30T03:49:08;99789.70;;;15.96;79.72
34073;BME280;20346;52.702;16.886;2023-08-30T03:52:38;99794.61;;;15.95;79.65
34073;BME280;20346;52.702;16.886;2023-08-30T03:56:04;99803.02;;;15.94;79.66
34073;BME280;20346;52.702;16.886;2023-08-30T03:59:32;99803.05;;;15.94;79.79
34073;BME280;20346;52.702;16.886;2023-08-30T04:02:59;99803.86;;;15.95;79.77
34073;BME280;20346;52.702;16.886;2023-08-30T04:06:25;99800.11;;;15.93;79.87
34073;BME280;20346;52.702;16.886;2023-08-30T04:09:53;99794.14;;;15.94;79.71
34073;BME280;20346;52.702;16.886;2023-08-30T04:13:20;99789.14;;;15.94;79.77
34073;BME280;20346;52.702;16.886;2023-08-30T04:16:46;99788.97;;;15.94;79.80
34073;BME280;20346;52.702;16.886;2023-08-30T04:20:13;99787.38;;;15.94;79.86
34073;BME280;20346;52.702;16.886;2023-08-30T04:23:39;99789.83;;;15.94;79.81
34073;BME280;20346;52.702;16.886;2023-08-30T04:27:07;99786.02;;;15.93;79.93
34073;BME280;20346;52.702;16.886;2023-08-30T04:30:35;99781.19;;;15.93;79.80
34073;BME280;20346;52.702;16.886;2023-08-30T04:34:01;99780.11;;;15.94;79.86
34073;BME280;20346;52.702;16.886;2023-08-30T04:37:32;99774.68;;;15.94;79.87
34073;BME280;20346;52.702;16.886;2023-08-30T04:40:58;99774.65;;;15.95;79.86
34073;BME280;20346;52.702;16.886;2023-08-30T04:44:25;99775.11;;;15.96;79.97
34073;BME280;20346;52.702;16.886;2023-08-30T04:47:52;99774.73;;;15.97;79.90
34073;BME280;20346;52.702;16.886;2023-08-30T04:50:28;99779.48;;;15.96;79.87
34073;BME280;20346;52.702;16.886;2023-08-30T04:53:55;99784.92;;;15.95;80.00
34073;BME280;20346;52.702;16.886;2023-08-30T04:57:22;99787.13;;;15.96;79.98
34073;BME280;20346;52.702;16.886;2023-08-30T05:00:48;99791.14;;;15.96;79.96
34073;BME280;20346;52.702;16.886;2023-08-30T05:04:16;99792.21;;;15.95;79.92
34073;BME280;20346;52.702;16.886;2023-08-30T05:07:43;99794.50;;;15.94;79.92
34073;BME280;20346;52.702;16.886;2023-08-30T05:11:10;99795.45;;;15.93;80.01
34073;BME280;20346;52.702;16.886;2023-08-30T05:14:36;99803.90;;;15.90;79.91
34073;BME280;20346;52.702;16.886;2023-08-30T05:18:03;99813.02;;;15.88;80.02
34073;BME280;20346;52.702;16.886;2023-08-30T05:21:31;99815.64;;;15.88;80.05
34073;BME280;20346;52.702;16.886;2023-08-30T05:24:57;99810.83;;;15.88;79.97
34073;BME280;20346;52.702;16.886;2023-08-30T05:28:24;99809.44;;;15.87;80.00
34073;BME280;20346;52.702;16.886;2023-08-30T05:31:50;99808.85;;;15.88;80.05
34073;BME280;20346;52.702;16.886;2023-08-30T05:35:17;99808.28;;;15.89;79.88
34073;BME280;20346;52.702;16.886;2023-08-30T05:38:43;99808.27;;;15.90;80.11
34073;BME280;20346;52.702;16.886;2023-08-30T05:42:11;99807.53;;;15.91;79.97
34073;BME280;20346;52.702;16.886;2023-08-30T05:45:37;99817.84;;;15.89;79.83
34073;BME280;20346;52.702;16.886;2023-08-30T05:49:04;99822.08;;;15.88;80.01
34073;BME280;20346;52.702;16.886;2023-08-30T05:52:31;99819.94;;;15.89;79.99
34073;BME280;20346;52.702;16.886;2023-08-30T05:55:57;99826.89;;;15.90;80.03
34073;BME280;20346;52.702;16.886;2023-08-30T05:59:24;99830.47;;;15.91;80.03
34073;BME280;20346;52.702;16.886;2023-08-30T06:02:10;99829.98;;;15.94;80.16
34073;BME280;20346;52.702;16.886;2023-08-30T06:05:17;99825.70;;;15.96;79.93
34073;BME280;20346;52.702;16.886;2023-08-30T06:08:04;99821.48;;;15.97;79.98
34073;BME280;20346;52.702;16.886;2023-08-30T06:10:52;99818.02;;;15.97;79.95
34073;BME280;20346;52.702;16.886;2023-08-30T06:13:50;99819.78;;;15.99;79.99
34073;BME280;20346;52.702;16.886;2023-08-30T06:16:37;99816.87;;;16.02;79.96
34073;BME280;20346;52.702;16.886;2023-08-30T06:19:23;99808.99;;;16.06;80.02
34073;BME280;20346;52.702;16.886;2023-08-30T06:22:11;99807.83;;;16.11;80.09
34073;BME280;20346;52.702;16.886;2023-08-30T06:25:25;99811.81;;;16.18;80.13
34073;BME280;20346;52.702;16.886;2023-08-30T06:28:12;99813.30;;;16.23;79.94
34073;BME280;20346;52.702;16.886;2023-08-30T06:30:59;99813.23;;;16.28;80.07
34073;BME280;20346;52.702;16.886;2023-08-30T06:33:46;99816.81;;;16.33;80.04
34073;BME280;20346;52.702;16.886;2023-08-30T06:36:35;99812.79;;;16.36;80.04
34073;BME280;20346;52.702;16.886;2023-08-30T06:39:21;99815.95;;;16.39;80.05
34073;BME280;20346;52.702;16.886;2023-08-30T06:42:27;99816.42;;;16.40;80.08
34073;BME280;20346;52.702;16.886;2023-08-30T06:45:21;99820.00;;;16.42;80.11
34073;BME280;20346;52.702;16.886;2023-08-30T06:48:16;99821.64;;;16.43;80.03
34073;BME280;20346;52.702;16.886;2023-08-30T06:51:02;99823.80;;;16.45;80.12
34073;BME280;20346;52.702;16.886;2023-08-30T06:53:53;99823.77;;;16.49;80.14
34073;BME280;20346;52.702;16.886;2023-08-30T06:56:41;99825.42;;;16.51;80.05
34073;BME280;20346;52.702;16.886;2023-08-30T06:59:47;99833.63;;;16.50;79.90
34073;BME280;20346;52.702;16.886;2023-08-30T07:02:34;99839.26;;;16.49;79.93
34073;BME280;20346;52.702;16.886;2023-08-30T07:05:21;99836.30;;;16.49;80.00
34073;BME280;20346;52.702;16.886;2023-08-30T07:08:28;99840.84;;;16.49;79.93
34073;BME280;20346;52.702;16.886;2023-08-30T07:11:14;99843.42;;;16.46;79.90
34073;BME280;20346;52.702;16.886;2023-08-30T07:14:00;99846.86;;;16.47;79.90
34073;BME280;20346;52.702;16.886;2023-08-30T07:17:03;99846.65;;;16.51;80.02
34073;BME280;20346;52.702;16.886;2023-08-30T07:19:50;99845.52;;;16.56;80.06
34073;BME280;20346;52.702;16.886;2023-08-30T07:22:36;99848.36;;;16.61;79.90
34073;BME280;20346;52.702;16.886;2023-08-30T07:26:02;99852.27;;;16.67;79.92
34073;BME280;20346;52.702;16.886;2023-08-30T07:29:04;99851.31;;;16.68;79.78
34073;BME280;20346;52.702;16.886;2023-08-30T07:32:31;99853.22;;;16.65;79.68
34073;BME280;20346;52.702;16.886;2023-08-30T07:35:56;99849.18;;;16.66;79.92
34073;BME280;20346;52.702;16.886;2023-08-30T07:39:19;99849.42;;;16.71;79.81
34073;BME280;20346;52.702;16.886;2023-08-30T07:42:26;99852.02;;;16.71;79.70
34073;BME280;20346;52.702;16.886;2023-08-30T07:45:12;99854.17;;;16.73;79.76
34073;BME280;20346;52.702;16.886;2023-08-30T07:47:58;99854.77;;;16.75;79.76
34073;BME280;20346;52.702;16.886;2023-08-30T07:51:02;99855.51;;;16.74;79.76
34073;BME280;20346;52.702;16.886;2023-08-30T07:54:11;99856.86;;;16.75;79.81
34073;BME280;20346;52.702;16.886;2023-08-30T07:56:58;99861.95;;;16.77;79.79
34073;BME280;20346;52.702;16.886;2023-08-30T08:00:04;99867.30;;;16.84;79.91
34073;BME280;20346;52.702;16.886;2023-08-30T08:02:52;99869.17;;;16.88;79.95
34073;BME280;20346;52.702;16.886;2023-08-30T08:06:20;99868.91;;;16.87;79.60
34073;BME280;20346;52.702;16.886;2023-08-30T08:09:46;99869.09;;;16.84;79.61
34073;BME280;20346;52.702;16.886;2023-08-30T08:13:13;99868.83;;;16.82;79.56
34073;BME280;20346;52.702;16.886;2023-08-30T08:16:39;99868.95;;;16.83;79.63
34073;BME280;20346;52.702;16.886;2023-08-30T08:20:05;99864.13;;;16.85;79.55
34073;BME280;20346;52.702;16.886;2023-08-30T08:23:32;99865.59;;;16.87;79.56
34073;BME280;20346;52.702;16.886;2023-08-30T08:26:58;99867.48;;;16.87;79.70
34073;BME280;20346;52.702;16.886;2023-08-30T08:30:25;99866.58;;;16.88;79.65
34073;BME280;20346;52.702;16.886;2023-08-30T08:34:05;99873.22;;;16.91;79.58
34073;BME280;20346;52.702;16.886;2023-08-30T08:37:19;99879.38;;;16.93;79.62
34073;BME280;20346;52.702;16.886;2023-08-30T08:40:48;99886.63;;;16.94;79.47
34073;BME280;20346;52.702;16.886;2023-08-30T08:44:15;99890.67;;;16.94;79.64
34073;BME280;20346;52.702;16.886;2023-08-30T08:47:41;99892.63;;;16.93;79.43
34073;BME280;20346;52.702;16.886;2023-08-30T08:51:08;99900.59;;;16.87;79.16
34073;BME280;20346;52.702;16.886;2023-08-30T08:54:36;99900.45;;;16.80;79.22
34073;BME280;20346;52.702;16.886;2023-08-30T08:58:03;99903.80;;;16.73;79.20
34073;BME280;20346;52.702;16.886;2023-08-30T09:01:31;99901.48;;;16.64;79.28
34073;BME280;20346;52.702;16.886;2023-08-30T09:04:57;99900.62;;;16.63;79.33
34073;BME280;20346;52.702;16.886;2023-08-30T09:08:25;99904.01;;;16.62;79.35
34073;BME280;20346;52.702;16.886;2023-08-30T09:11:51;99904.79;;;16.61;79.33
34073;BME280;20346;52.702;16.886;2023-08-30T09:15:31;99909.91;;;16.59;79.39
34073;BME280;20346;52.702;16.886;2023-08-30T09:22:24;99906.90;;;16.67;79.56
34073;BME280;20346;52.702;16.886;2023-08-30T09:25:54;99906.55;;;16.73;79.50
34073;BME280;20346;52.702;16.886;2023-08-30T09:29:21;99907.50;;;16.75;79.45
34073;BME280;20346;52.702;16.886;2023-08-30T09:32:47;99906.72;;;16.83;79.58
34073;BME280;20346;52.702;16.886;2023-08-30T09:36:13;99904.11;;;16.90;79.56
34073;BME280;20346;52.702;16.886;2023-08-30T09:39:47;99903.27;;;16.96;79.18
34073;BME280;20346;52.702;16.886;2023-08-30T09:43:06;99903.52;;;17.01;79.34
34073;BME280;20346;52.702;16.886;2023-08-30T09:46:39;99893.78;;;17.04;79.32
34073;BME280;20346;52.702;16.886;2023-08-30T09:49:59;99892.42;;;17.06;79.43
34073;BME280;20346;52.702;16.886;2023-08-30T09:53:26;99897.52;;;17.18;79.40
34073;BME280;20346;52.702;16.886;2023-08-30T09:56:52;99895.11;;;17.23;79.22
34073;BME280;20346;52.702;16.886;2023-08-30T10:00:18;99893.75;;;17.36;79.23
34073;BME280;20346;52.702;16.886;2023-08-30T10:03:45;99894.36;;;17.59;79.36
34073;BME280;20346;52.702;16.886;2023-08-30T10:07:11;99895.12;;;17.73;79.40
34073;BME280;20346;52.702;16.886;2023-08-30T10:10:37;99896.09;;;17.77;79.06
34073;BME280;20346;52.702;16.886;2023-08-30T10:14:04;99900.58;;;17.69;79.09
34073;BME280;20346;52.702;16.886;2023-08-30T10:17:33;99907.00;;;17.64;79.00
34073;BME280;20346;52.702;16.886;2023-08-30T10:20:39;99904.83;;;17.55;78.91
34073;BME280;20346;52.702;16.886;2023-08-30T10:24:06;99905.77;;;17.48;78.94
34073;BME280;20346;52.702;16.886;2023-08-30T10:27:31;99909.04;;;17.52;79.15
34073;BME280;20346;52.702;16.886;2023-08-30T10:30:57;99906.45;;;17.55;79.07
34073;BME280;20346;52.702;16.886;2023-08-30T10:34:23;99904.99;;;17.59;79.06
34073;BME280;20346;52.702;16.886;2023-08-30T10:37:54;99907.36;;;17.63;79.06
34073;BME280;20346;52.702;16.886;2023-08-30T10:41:23;99905.66;;;17.69;79.11
34073;BME280;20346;52.702;16.886;2023-08-30T10:44:56;99899.89;;;17.72;79.06
34073;BME280;20346;52.702;16.886;2023-08-30T10:48:17;99901.85;;;17.71;78.84
34073;BME280;20346;52.702;16.886;2023-08-30T10:51:43;99901.61;;;17.60;78.71
34073;BME280;20346;52.702;16.886;2023-08-30T10:55:10;99904.92;;;17.50;78.74
34073;BME280;20346;52.702;16.886;2023-08-30T10:58:41;99909.23;;;17.48;78.92
34073;BME280;20346;52.702;16.886;2023-08-30T11:02:07;99906.52;;;17.44;78.74
34073;BME280;20346;52.702;16.886;2023-08-30T11:05:33;99912.56;;;17.42;78.79
34073;BME280;20346;52.702;16.886;2023-08-30T11:08:59;99914.20;;;17.37;78.81
34073;BME280;20346;52.702;16.886;2023-08-30T11:12:24;99913.78;;;17.36;78.75
34073;BME280;20346;52.702;16.886;2023-08-30T11:15:50;99912.09;;;17.28;78.68
34073;BME280;20346;52.702;16.886;2023-08-30T11:19:17;99916.18;;;17.24;78.77
34073;BME280;20346;52.702;16.886;2023-08-30T11:22:44;99916.30;;;17.21;78.77
34073;BME280;20346;52.702;16.886;2023-08-30T11:26:09;99918.33;;;17.23;78.77
34073;BME280;20346;52.702;16.886;2023-08-30T11:29:36;99918.41;;;17.21;78.73
34073;BME280;20346;52.702;16.886;2023-08-30T11:33:02;99922.44;;;17.20;78.83
34073;BME280;20346;52.702;16.886;2023-08-30T11:36:29;99923.55;;;17.22;78.89
34073;BME280;20346;52.702;16.886;2023-08-30T11:39:57;99925.98;;;17.26;79.00
34073;BME280;20346;52.702;16.886;2023-08-30T11:43:22;99924.82;;;17.28;78.81
34073;BME280;20346;52.702;16.886;2023-08-30T11:46:48;99918.99;;;17.33;78.83
34073;BME280;20346;52.702;16.886;2023-08-30T11:50:14;99920.44;;;17.38;78.71
34073;BME280;20346;52.702;16.886;2023-08-30T11:53:41;99922.49;;;17.42;78.79
34073;BME280;20346;52.702;16.886;2023-08-30T11:57:08;99922.04;;;17.41;78.58
34073;BME280;20346;52.702;16.886;2023-08-30T12:00:33;99922.02;;;17.41;78.76
34073;BME280;20346;52.702;16.886;2023-08-30T12:04:07;99928.21;;;17.49;78.85
34073;BME280;20346;52.702;16.886;2023-08-30T12:07:25;99931.39;;;17.54;78.82
34073;BME280;20346;52.702;16.886;2023-08-30T12:10:52;99931.10;;;17.60;78.88
34073;BME280;20346;52.702;16.886;2023-08-30T12:14:18;99934.82;;;17.62;78.80
34073;BME280;20346;52.702;16.886;2023-08-30T12:17:44;99930.57;;;17.63;78.73
34073;BME280;20346;52.702;16.886;2023-08-30T12:21:10;99929.59;;;17.65;78.68
34073;BME280;20346;52.702;16.886;2023-08-30T12:24:40;99931.05;;;17.70;78.71
34073;BME280;20346;52.702;16.886;2023-08-30T12:28:05;99932.26;;;17.73;78.87
34073;BME280;20346;52.702;16.886;2023-08-30T12:31:32;99930.19;;;17.75;78.72
34073;BME280;20346;52.702;16.886;2023-08-30T12:34:58;99926.00;;;17.79;78.75
34073;BME280;20346;52.702;16.886;2023-08-30T12:38:24;99923.08;;;17.78;78.65
34073;BME280;20346;52.702;16.886;2023-08-30T12:41:50;99925.67;;;17.75;78.78
34073;BME280;20346;52.702;16.886;2023-08-30T12:45:16;99930.46;;;17.74;78.73
34073;BME280;20346;52.702;16.886;2023-08-30T12:48:41;99932.64;;;17.75;78.71
34073;BME280;20346;52.702;16.886;2023-08-30T12:51:56;99937.84;;;17.82;78.73
34073;BME280;20346;52.702;16.886;2023-08-30T12:55:22;99936.31;;;17.88;78.64
34073;BME280;20346;52.702;16.886;2023-08-30T12:58:48;99934.73;;;17.91;78.68
34073;BME280;20346;52.702;16.886;2023-08-30T13:02:10;99927.01;;;17.92;78.69
34073;BME280;20346;52.702;16.886;2023-08-30T13:05:36;99922.26;;;17.99;78.73
34073;BME280;20346;52.702;16.886;2023-08-30T13:09:02;99928.62;;;18.03;78.53
34073;BME280;20346;52.702;16.886;2023-08-30T13:12:28;99924.98;;;18.06;78.55
34073;BME280;20346;52.702;16.886;2023-08-30T13:15:54;99920.69;;;17.99;78.50
34073;BME280;20346;52.702;16.886;2023-08-30T13:19:20;99916.16;;;17.99;78.55
34073;BME280;20346;52.702;16.886;2023-08-30T13:22:45;99913.42;;;18.04;78.52
34073;BME280;20346;52.702;16.886;2023-08-30T13:26:12;99910.96;;;18.13;78.56
34073;BME280;20346;52.702;16.886;2023-08-30T13:29:38;99913.38;;;18.28;78.53
34073;BME280;20346;52.702;16.886;2023-08-30T13:33:04;99911.09;;;18.34;78.37
34073;BME280;20346;52.702;16.886;2023-08-30T13:36:30;99911.61;;;18.25;78.24
34073;BME280;20346;52.702;16.886;2023-08-30T13:39:40;99914.14;;;18.15;78.25
34073;BME280;20346;52.702;16.886;2023-08-30T13:43:07;99915.46;;;18.07;78.38
34073;BME280;20346;52.702;16.886;2023-08-30T13:46:33;99914.02;;;17.99;78.33
34073;BME280;20346;52.702;16.886;2023-08-30T13:49:40;99915.83;;;17.95;78.43
34073;BME280;20346;52.702;16.886;2023-08-30T13:53:06;99911.11;;;17.92;78.43
34073;BME280;20346;52.702;16.886;2023-08-30T13:56:32;99906.36;;;17.93;78.38
34073;BME280;20346;52.702;16.886;2023-08-30T14:00:04;99899.25;;;17.93;78.46
34073;BME280;20346;52.702;16.886;2023-08-30T14:03:30;99896.63;;;17.92;78.44
34073;BME280;20346;52.702;16.886;2023-08-30T14:06:56;99896.11;;;17.92;78.59
34073;BME280;20346;52.702;16.886;2023-08-30T14:10:22;99892.73;;;17.94;78.41
34073;BME280;20346;52.702;16.886;2023-08-30T14:13:48;99898.77;;;17.88;78.32
34073;BME280;20346;52.702;16.886;2023-08-30T14:17:13;99901.52;;;17.83;78.40
34073;BME280;20346;52.702;16.886;2023-08-30T14:20:42;99904.70;;;17.82;78.39
34073;BME280;20346;52.702;16.886;2023-08-30T14:24:09;99902.60;;;17.79;78.47
34073;BME280;20346;52.702;16.886;2023-08-30T14:27:35;99899.92;;;17.83;78.30
34073;BME280;20346;52.702;16.886;2023-08-30T14:31:01;99903.66;;;17.85;78.44
34073;BME280;20346;52.702;16.886;2023-08-30T14:34:27;99906.96;;;17.85;78.46
34073;BME280;20346;52.702;16.886;2023-08-30T14:37:54;99909.65;;;17.87;78.53
34073;BME280;20346;52.702;16.886;2023-08-30T14:41:20;99909.73;;;17.89;78.43
34073;BME280;20346;52.702;16.886;2023-08-30T14:44:50;99909.27;;;17.88;78.46
34073;BME280;20346;52.702;16.886;2023-08-30T14:48:16;99911.06;;;17.84;78.32
34073;BME280;20346;52.702;16.886;2023-08-30T14:51:49;99912.91;;;17.82;78.48
34073;BME280;20346;52.702;16.886;2023-08-30T14:55:24;99913.27;;;17.78;78.48
34073;BME280;20346;52.702;16.886;2023-08-30T14:58:51;99920.45;;;17.78;78.42
34073;BME280;20346;52.702;16.886;2023-08-30T15:02:18;99920.90;;;17.83;78.29
34073;BME280;20346;52.702;16.886;2023-08-30T15:05:45;99918.27;;;17.83;78.19
34073;BME280;20346;52.702;16.886;2023-08-30T15:09:11;99912.21;;;17.82;78.23
34073;BME280;20346;52.702;16.886;2023-08-30T15:12:37;99911.48;;;17.79;78.27
34073;BME280;20346;52.702;16.886;2023-08-30T15:16:04;99911.38;;;17.78;78.23
34073;BME280;20346;52.702;16.886;2023-08-30T15:19:30;99914.62;;;17.77;78.18
34073;BME280;20346;52.702;16.886;2023-08-30T15:22:57;99910.96;;;17.70;78.04
34073;BME280;20346;52.702;16.886;2023-08-30T15:26:23;99906.93;;;17.65;78.16
34073;BME280;20346;52.702;16.886;2023-08-30T15:29:50;99906.90;;;17.66;78.37
34073;BME280;20346;52.702;16.886;2023-08-30T15:33:16;99909.15;;;17.66;78.19
34073;BME280;20346;52.702;16.886;2023-08-30T15:36:43;99909.73;;;17.68;78.23
34073;BME280;20346;52.702;16.886;2023-08-30T15:40:09;99915.02;;;17.70;78.36
34073;BME280;20346;52.702;16.886;2023-08-30T15:43:36;99918.67;;;17.70;78.26
34073;BME280;20346;52.702;16.886;2023-08-30T15:47:02;99917.80;;;17.63;78.24
34073;BME280;20346;52.702;16.886;2023-08-30T15:50:29;99920.73;;;17.54;78.31
34073;BME280;20346;52.702;16.886;2023-08-30T15:53:55;99926.06;;;17.47;78.36
34073;BME280;20346;52.702;16.886;2023-08-30T15:57:23;99934.06;;;17.40;78.16
34073;BME280;20346;52.702;16.886;2023-08-30T16:00:26;99933.86;;;17.35;78.22
34073;BME280;20346;52.702;16.886;2023-08-30T16:03:53;99935.61;;;17.28;78.32
34073;BME280;20346;52.702;16.886;2023-08-30T16:07:19;99935.83;;;17.24;78.30
34073;BME280;20346;52.702;16.886;2023-08-30T16:10:51;99936.39;;;17.20;78.30
34073;BME280;20346;52.702;16.886;2023-08-30T16:14:23;99933.66;;;17.16;78.23
34073;BME280;20346;52.702;16.886;2023-08-30T16:17:50;99932.42;;;17.10;78.26
34073;BME280;20346;52.702;16.886;2023-08-30T16:21:18;99931.69;;;17.08;78.28
34073;BME280;20346;52.702;16.886;2023-08-30T16:24:29;99936.01;;;17.06;78.25
34073;BME280;20346;52.702;16.886;2023-08-30T16:27:56;99936.88;;;17.02;78.30
34073;BME280;20346;52.702;16.886;2023-08-30T16:31:28;99940.96;;;17.01;78.31
34073;BME280;20346;52.702;16.886;2023-08-30T16:34:19;99942.29;;;16.99;78.27
34073;BME280;20346;52.702;16.886;2023-08-30T16:37:47;99944.08;;;16.98;78.26
34073;BME280;20346;52.702;16.886;2023-08-30T16:41:13;99945.48;;;16.98;78.31
34073;BME280;20346;52.702;16.886;2023-08-30T16:44:41;99950.95;;;16.96;78.33
34073;BME280;20346;52.702;16.886;2023-08-30T16:48:08;99955.77;;;16.94;78.39
34073;BME280;20346;52.702;16.886;2023-08-30T16:51:35;99957.65;;;16.91;78.41
34073;BME280;20346;52.702;16.886;2023-08-30T16:55:01;99964.06;;;16.88;78.38
34073;BME280;20346;52.702;16.886;2023-08-30T16:58:28;99962.66;;;16.85;78.35
34073;BME280;20346;52.702;16.886;2023-08-30T17:01:38;99968.17;;;16.80;78.31
34073;BME280;20346;52.702;16.886;2023-08-30T17:05:04;99971.54;;;16.75;78.28
34073;BME280;20346;52.702;16.886;2023-08-30T17:08:31;99976.61;;;16.71;78.41
34073;BME280;20346;52.702;16.886;2023-08-30T17:11:57;99982.71;;;16.68;78.48
34073;BME280;20346;52.702;16.886;2023-08-30T17:15:26;99988.05;;;16.62;78.43
34073;BME280;20346;52.702;16.886;2023-08-30T17:18:50;99992.52;;;16.60;78.42
34073;BME280;20346;52.702;16.886;2023-08-30T17:22:17;99993.16;;;16.58;78.46
34073;BME280;20346;52.702;16.886;2023-08-30T17:25:24;99993.22;;;16.57;78.47
34073;BME280;20346;52.702;16.886;2023-08-30T17:28:13;99991.34;;;16.55;78.45
34073;BME280;20346;52.702;16.886;2023-08-30T17:31:39;99986.66;;;16.52;78.54
34073;BME280;20346;52.702;16.886;2023-08-30T17:35:06;99987.70;;;16.48;78.56
34073;BME280;20346;52.702;16.886;2023-08-30T17:38:32;99989.85;;;16.47;78.49
34073;BME280;20346;52.702;16.886;2023-08-30T17:41:58;99985.11;;;16.44;78.56